Time;durP1;ratioP1;P1;durP2;ratioP2;P2;SDS_P1;SDS_P2;PMS_P1;PMS_P2;Temp;Humidity;BMP_temperature;BMP_pressure;BME280_temperature;BME280_humidity;BME280_pressure;Samples;Min_cycle;Max_cycle;Signal;HPM_P1;HPM_P2
2022/07/23 00:01:17;;;;;;;3.97;2.42;;;;;;;;;;4912252;28;20285;-82
2022/07/23 00:03:42;;;;;;;2.78;2.50;;;;;;;;;;4924721;29;20229;-82
2022/07/23 00:06:08;;;;;;;4.35;2.80;;;;;;;;;;4923647;28;20226;-81
2022/07/23 00:08:36;;;;;;;5.43;2.80;;;;;;;;;;4936538;29;20227;-82
2022/07/23 00:11:06;;;;;;;4.13;2.30;;;;;;;;;;4942359;29;20227;-77
2022/07/23 00:13:34;;;;;;;4.53;2.65;;;;;;;;;;4924507;29;20231;-81
2022/07/23 00:16:00;;;;;;;5.55;2.60;;;;;;;;;;4918893;29;20309;-82
2022/07/23 00:18:25;;;;;;;4.13;2.58;;;;;;;;;;4916126;29;20601;-82
2022/07/23 00:20:51;;;;;;;4.35;2.45;;;;;;;;;;4939947;29;20684;-80
2022/07/23 00:23:16;;;;;;;4.47;2.50;;;;;;;;;;4924187;28;20772;-85
2022/07/23 00:25:42;;;;;;;5.53;2.72;;;;;;;;;;4939680;29;20226;-83
2022/07/23 00:28:07;;;;;;;4.13;2.65;;;;;;;;;;4912331;28;20229;-80
2022/07/23 00:30:35;;;;;;;5.38;2.53;;;;;;;;;;4928813;29;20288;-79
2022/07/23 00:33:05;;;;;;;2.42;2.17;;;;;;;;;;4942164;28;20226;-81
2022/07/23 00:35:33;;;;;;;5.45;2.70;;;;;;;;;;4940415;29;20235;-82
2022/07/23 00:38:01;;;;;;;3.85;2.60;;;;;;;;;;4928963;29;20603;-82
2022/07/23 00:40:27;;;;;;;7.43;2.70;;;;;;;;;;4926848;29;20218;-83
2022/07/23 00:42:53;;;;;;;5.47;2.85;;;;;;;;;;4909917;29;20730;-82
2022/07/23 00:45:19;;;;;;;4.53;2.92;;;;;;;;;;4925965;28;20729;-84
2022/07/23 00:47:47;;;;;;;4.45;2.60;;;;;;;;;;4910660;29;20231;-80
2022/07/23 00:50:12;;;;;;;4.75;2.60;;;;;;;;;;4910228;28;20274;-81
2022/07/23 00:52:40;;;;;;;5.00;2.95;;;;;;;;;;4925503;29;20314;-82
2022/07/23 00:55:09;;;;;;;3.67;2.63;;;;;;;;;;4916268;28;21033;-81
2022/07/23 00:57:40;;;;;;;5.22;2.90;;;;;;;;;;4923095;29;20234;-82
2022/07/23 01:00:07;;;;;;;3.85;2.90;;;;;;;;;;4910301;28;20223;-80
2022/07/23 01:02:33;;;;;;;3.75;2.70;;;;;;;;;;4940718;29;20223;-83
2022/07/23 01:04:58;;;;;;;4.85;2.58;;;;;;;;;;4941180;29;20231;-83
2022/07/23 01:07:24;;;;;;;3.13;2.63;;;;;;;;;;4927595;28;20225;-82
2022/07/23 01:09:50;;;;;;;3.55;2.83;;;;;;;;;;4913003;28;20234;-81
2022/07/23 01:12:16;;;;;;;6.47;3.35;;;;;;;;;;4913179;29;20771;-80
2022/07/23 01:14:42;;;;;;;4.57;3.20;;;;;;;;;;4895230;29;20230;-82
2022/07/23 01:17:12;;;;;;;3.30;3.00;;;;;;;;;;4921426;28;20282;-82
2022/07/23 01:19:40;;;;;;;4.65;3.00;;;;;;;;;;4929142;29;20238;-81
2022/07/23 01:22:09;;;;;;;4.55;3.08;;;;;;;;;;4952298;28;20230;-80
2022/07/23 01:24:34;;;;;;;4.40;2.78;;;;;;;;;;4902883;29;20227;-82
2022/07/23 01:27:05;;;;;;;3.40;3.10;;;;;;;;;;4926988;28;20306;-82
2022/07/23 01:29:35;;;;;;;3.90;3.00;;;;;;;;;;4930857;29;20302;-81
2022/07/23 01:32:05;;;;;;;5.22;3.00;;;;;;;;;;4923300;28;20235;-83
2022/07/23 01:34:31;;;;;;;4.13;3.20;;;;;;;;;;4926772;29;20317;-81
2022/07/23 01:36:57;;;;;;;4.93;3.17;;;;;;;;;;4925455;29;20365;-82
2022/07/23 01:39:25;;;;;;;4.20;3.20;;;;;;;;;;4916344;29;20231;-82
2022/07/23 01:41:55;;;;;;;4.17;2.93;;;;;;;;;;4928765;29;20234;-83
2022/07/23 01:44:21;;;;;;;4.43;3.00;;;;;;;;;;4928028;28;20258;-82
2022/07/23 01:46:47;;;;;;;3.17;2.87;;;;;;;;;;4913718;29;20230;-82
2022/07/23 01:49:14;;;;;;;2.78;2.58;;;;;;;;;;4920819;29;20214;-81
2022/07/23 01:52:00;;;;;;;3.60;2.47;;;;;;;;;;4918872;29;20860;-82
2022/07/23 01:54:32;;;;;;;3.80;3.00;;;;;;;;;;4925920;29;20374;-83
2022/07/23 01:57:01;;;;;;;4.93;3.35;;;;;;;;;;4928012;29;20227;-82
2022/07/23 01:59:27;;;;;;;4.10;3.40;;;;;;;;;;4917267;29;20227;-84
2022/07/23 02:01:53;;;;;;;2.95;2.75;;;;;;;;;;4924537;29;20237;-81
2022/07/23 02:04:22;;;;;;;5.13;3.10;;;;;;;;;;4907917;29;20727;-82
2022/07/23 02:06:47;;;;;;;4.83;3.30;;;;;;;;;;4952678;29;20219;-83
2022/07/23 02:09:15;;;;;;;3.35;3.05;;;;;;;;;;4915970;28;20703;-82
2022/07/23 02:11:46;;;;;;;3.70;2.90;;;;;;;;;;4926085;29;20234;-83
2022/07/23 02:14:11;;;;;;;3.37;2.70;;;;;;;;;;4912384;28;20230;-82
2022/07/23 02:16:39;;;;;;;3.67;3.00;;;;;;;;;;4913388;29;20225;-81
2022/07/23 02:19:05;;;;;;;3.93;3.03;;;;;;;;;;4958538;28;20242;-84
2022/07/23 02:21:30;;;;;;;3.87;3.00;;;;;;;;;;4928028;29;20231;-83
2022/07/23 02:23:56;;;;;;;2.83;2.63;;;;;;;;;;4926438;29;20226;-80
2022/07/23 02:26:24;;;;;;;3.05;2.83;;;;;;;;;;4920992;28;20228;-79
2022/07/23 02:28:52;;;;;;;2.67;2.40;;;;;;;;;;4911665;29;20239;-83
2022/07/23 02:31:18;;;;;;;2.80;2.50;;;;;;;;;;4906567;29;20610;-81
2022/07/23 02:33:44;;;;;;;4.78;2.75;;;;;;;;;;4939537;29;20235;-83
2022/07/23 02:36:10;;;;;;;2.90;2.53;;;;;;;;;;4923068;28;20286;-83
2022/07/23 02:38:35;;;;;;;4.35;3.10;;;;;;;;;;4909874;29;20234;-83
2022/07/23 02:41:01;;;;;;;3.23;2.90;;;;;;;;;;4924105;29;20226;-84
2022/07/23 02:43:26;;;;;;;5.13;3.10;;;;;;;;;;4910734;29;20223;-83
2022/07/23 02:45:55;;;;;;;3.30;2.67;;;;;;;;;;4913997;29;20223;-83
2022/07/23 02:48:22;;;;;;;3.20;3.00;;;;;;;;;;4908605;29;20223;-83
2022/07/23 02:50:49;;;;;;;2.77;2.57;;;;;;;;;;4938125;29;20234;-83
2022/07/23 02:53:22;;;;;;;2.60;2.40;;;;;;;;;;4913897;29;20233;-82
2022/07/23 02:55:48;;;;;;;3.00;2.70;;;;;;;;;;4939019;29;20320;-81
2022/07/23 02:58:14;;;;;;;3.23;2.70;;;;;;;;;;4908352;28;20269;-81
2022/07/23 03:00:41;;;;;;;4.37;2.60;;;;;;;;;;4913659;29;20231;-82
2022/07/23 03:03:08;;;;;;;4.15;2.78;;;;;;;;;;4941912;29;20598;-82
2022/07/23 03:05:35;;;;;;;3.30;3.10;;;;;;;;;;4942177;29;20219;-82
2022/07/23 03:08:03;;;;;;;2.87;2.57;;;;;;;;;;4915937;29;20649;-81
2022/07/23 03:10:29;;;;;;;3.55;3.25;;;;;;;;;;4922558;29;20306;-79
2022/07/23 03:12:57;;;;;;;3.67;2.90;;;;;;;;;;4920077;29;20299;-82
2022/07/23 03:15:22;;;;;;;3.80;3.10;;;;;;;;;;4949446;28;20234;-82
2022/07/23 03:17:50;;;;;;;4.68;3.08;;;;;;;;;;4956179;29;20233;-80
2022/07/23 03:20:18;;;;;;;4.05;3.25;;;;;;;;;;4943263;29;20218;-80
2022/07/23 03:22:46;;;;;;;3.47;3.17;;;;;;;;;;4940342;29;20231;-81
2022/07/23 03:25:11;;;;;;;3.92;3.40;;;;;;;;;;4924901;29;20231;-83
2022/07/23 03:27:37;;;;;;;4.63;3.60;;;;;;;;;;4927366;29;20258;-83
2022/07/23 03:30:08;;;;;;;3.50;3.20;;;;;;;;;;4925612;28;20744;-84
2022/07/23 03:32:33;;;;;;;3.80;3.30;;;;;;;;;;4919271;29;20231;-83
2022/07/23 03:34:59;;;;;;;4.03;2.53;;;;;;;;;;4927453;29;20234;-83
2022/07/23 03:37:27;;;;;;;4.68;2.80;;;;;;;;;;4911530;29;20222;-84
2022/07/23 03:39:55;;;;;;;3.92;2.83;;;;;;;;;;4919269;29;20597;-83
2022/07/23 03:42:23;;;;;;;4.17;2.93;;;;;;;;;;4941617;28;20223;-84
2022/07/23 03:44:49;;;;;;;3.07;2.50;;;;;;;;;;4932060;28;20219;-82
2022/07/23 03:47:16;;;;;;;4.37;2.87;;;;;;;;;;4931939;28;20235;-82
2022/07/23 03:49:45;;;;;;;5.32;3.47;;;;;;;;;;4929409;29;20250;-84
2022/07/23 03:52:13;;;;;;;4.30;3.17;;;;;;;;;;4928091;29;20711;-84
2022/07/23 03:54:38;;;;;;;3.60;3.30;;;;;;;;;;4909987;29;20222;-83
2022/07/23 03:57:04;;;;;;;3.20;2.92;;;;;;;;;;4923911;28;20230;-83
2022/07/23 03:59:29;;;;;;;3.72;3.22;;;;;;;;;;4910895;29;20257;-83
2022/07/23 04:01:55;;;;;;;6.28;3.67;;;;;;;;;;4940683;28;20260;-83
2022/07/23 04:04:21;;;;;;;5.43;3.88;;;;;;;;;;4909511;29;20215;-83
2022/07/23 04:06:46;;;;;;;5.23;4.30;;;;;;;;;;4924040;29;20218;-82
2022/07/23 04:09:16;;;;;;;5.23;4.20;;;;;;;;;;4922142;28;20226;-84
2022/07/23 04:11:42;;;;;;;6.13;3.97;;;;;;;;;;4925670;29;20346;-85
2022/07/23 04:14:08;;;;;;;4.68;3.28;;;;;;;;;;4922996;28;20259;-86
2022/07/23 04:16:33;;;;;;;4.13;3.72;;;;;;;;;;4938660;29;20219;-85
2022/07/23 04:18:59;;;;;;;4.33;3.93;;;;;;;;;;4929515;28;20219;-83
2022/07/23 04:21:28;;;;;;;4.20;3.90;;;;;;;;;;4943119;29;20255;-82
2022/07/23 04:23:59;;;;;;;4.18;3.88;;;;;;;;;;4946702;29;20286;-85
2022/07/23 04:26:29;;;;;;;4.50;4.10;;;;;;;;;;4938393;29;20295;-83
2022/07/23 04:28:57;;;;;;;7.77;5.13;;;;;;;;;;4953825;29;20239;-82
2022/07/23 04:31:25;;;;;;;5.40;4.90;;;;;;;;;;4954053;28;20222;-81
2022/07/23 04:33:50;;;;;;;8.13;5.07;;;;;;;;;;4921321;29;20260;-82
2022/07/23 04:36:17;;;;;;;5.47;4.87;;;;;;;;;;4921891;28;20263;-82
2022/07/23 04:38:43;;;;;;;6.90;5.37;;;;;;;;;;4928207;29;20279;-81
2022/07/23 04:41:09;;;;;;;6.20;5.60;;;;;;;;;;4925143;29;20254;-81
2022/07/23 04:43:35;;;;;;;5.97;5.43;;;;;;;;;;4934603;29;20287;-82
2022/07/23 04:46:00;;;;;;;5.93;5.40;;;;;;;;;;4931928;29;20231;-82
2022/07/23 04:48:28;;;;;;;6.63;5.17;;;;;;;;;;4915148;29;20219;-81
2022/07/23 04:51:03;;;;;;;5.97;5.47;;;;;;;;;;4923189;28;20231;-80
2022/07/23 04:53:31;;;;;;;8.43;5.60;;;;;;;;;;4926945;29;20234;-81
2022/07/23 04:56:01;;;;;;;6.33;5.27;;;;;;;;;;4945520;29;20235;-82
2022/07/23 04:58:34;;;;;;;7.90;5.32;;;;;;;;;;4927157;29;20230;-81
2022/07/23 05:01:00;;;;;;;7.40;5.03;;;;;;;;;;4931994;29;20219;-82
2022/07/23 05:03:29;;;;;;;5.28;4.78;;;;;;;;;;4911281;29;20222;-82
2022/07/23 05:05:55;;;;;;;5.50;4.88;;;;;;;;;;4942447;28;20226;-82
2022/07/23 05:08:23;;;;;;;5.75;4.82;;;;;;;;;;4893620;29;20677;-82
2022/07/23 05:10:52;;;;;;;5.65;5.15;;;;;;;;;;4934585;29;20278;-82
2022/07/23 05:13:19;;;;;;;4.72;4.32;;;;;;;;;;4938381;29;20216;-82
2022/07/23 05:15:45;;;;;;;4.95;4.55;;;;;;;;;;4945427;29;20243;-82
2022/07/23 05:18:13;;;;;;;5.18;4.70;;;;;;;;;;4943194;28;20539;-83
2022/07/23 05:20:38;;;;;;;6.00;4.65;;;;;;;;;;4940276;29;20598;-82
2022/07/23 05:23:06;;;;;;;4.88;4.47;;;;;;;;;;4910858;28;20222;-82
2022/07/23 05:25:32;;;;;;;6.18;4.50;;;;;;;;;;4915441;29;20305;-82
2022/07/23 05:27:58;;;;;;;4.82;4.43;;;;;;;;;;4913571;29;20627;-81
2022/07/23 05:30:23;;;;;;;5.65;4.68;;;;;;;;;;4931733;29;20218;-82
2022/07/23 05:32:53;;;;;;;4.55;4.15;;;;;;;;;;4947194;29;20233;-82
2022/07/23 05:35:21;;;;;;;4.90;4.50;;;;;;;;;;4909864;29;20311;-82
2022/07/23 05:38:04;;;;;;;5.03;4.57;;;;;;;;;;4919289;29;20317;-81
2022/07/23 05:40:32;;;;;;;4.93;4.45;;;;;;;;;;4932132;29;20245;-82
2022/07/23 05:43:00;;;;;;;5.15;4.72;;;;;;;;;;4919306;28;20441;-80
2022/07/23 05:45:26;;;;;;;6.68;5.05;;;;;;;;;;4927712;29;20239;-82
2022/07/23 05:47:52;;;;;;;5.43;4.95;;;;;;;;;;4950379;29;20258;-83
2022/07/23 05:50:26;;;;;;;7.00;5.32;;;;;;;;;;4923745;28;20215;-82
2022/07/23 05:52:58;;;;;;;6.55;5.30;;;;;;;;;;4947723;29;20247;-82
2022/07/23 05:55:31;;;;;;;5.75;5.03;;;;;;;;;;4944587;28;20607;-81
2022/07/23 05:58:00;;;;;;;5.97;5.47;;;;;;;;;;4915266;29;20283;-82
2022/07/23 06:00:29;;;;;;;6.28;5.63;;;;;;;;;;4921907;29;20318;-82
2022/07/23 06:02:57;;;;;;;7.90;5.40;;;;;;;;;;4961227;29;20317;-84
2022/07/23 06:05:24;;;;;;;6.00;5.43;;;;;;;;;;4947455;28;20226;-82
2022/07/23 06:07:52;;;;;;;5.32;4.80;;;;;;;;;;4917595;29;20227;-82
2022/07/23 06:10:18;;;;;;;5.85;4.47;;;;;;;;;;4962373;28;20226;-83
2022/07/23 06:12:44;;;;;;;5.50;4.95;;;;;;;;;;4939729;29;20299;-82
2022/07/23 06:15:13;;;;;;;5.88;4.30;;;;;;;;;;4919906;28;20227;-84
2022/07/23 06:17:41;;;;;;;7.68;5.10;;;;;;;;;;4913273;29;20646;-83
2022/07/23 06:20:08;;;;;;;5.00;4.40;;;;;;;;;;4923402;28;20226;-84
2022/07/23 06:22:36;;;;;;;4.97;4.43;;;;;;;;;;4911218;29;20258;-85
2022/07/23 06:25:02;;;;;;;5.45;4.55;;;;;;;;;;4912810;29;20227;-84
2022/07/23 06:27:30;;;;;;;5.53;3.88;;;;;;;;;;4912810;29;20258;-83
2022/07/23 06:29:56;;;;;;;5.20;3.50;;;;;;;;;;4942347;28;20222;-83
2022/07/23 06:32:23;;;;;;;7.00;3.92;;;;;;;;;;4924588;29;20234;-83
2022/07/23 06:34:49;;;;;;;6.95;4.03;;;;;;;;;;4921017;29;20227;-82
2022/07/23 06:37:17;;;;;;;5.43;3.65;;;;;;;;;;4899859;28;20238;-82
2022/07/23 06:39:45;;;;;;;4.32;2.00;;;;;;;;;;4915719;29;20227;-83
2022/07/23 06:42:13;;;;;;;3.25;1.88;;;;;;;;;;4940326;28;20221;-84
2022/07/23 06:44:43;;;;;;;2.80;1.65;;;;;;;;;;4942072;29;20747;-82
2022/07/23 06:47:09;;;;;;;2.78;1.60;;;;;;;;;;4908428;28;20222;-82
2022/07/23 06:49:37;;;;;;;4.07;1.73;;;;;;;;;;4913271;29;20306;-80
2022/07/23 06:52:03;;;;;;;3.08;1.83;;;;;;;;;;4928562;28;20234;-81
2022/07/23 06:54:28;;;;;;;3.42;1.60;;;;;;;;;;4957559;29;20716;-82
2022/07/23 06:56:54;;;;;;;3.50;1.52;;;;;;;;;;4925725;29;20238;-83
2022/07/23 06:59:21;;;;;;;6.20;1.77;;;;;;;;;;4925280;28;20290;-82
2022/07/23 07:01:47;;;;;;;3.45;1.60;;;;;;;;;;4915700;29;20215;-84
2022/07/23 07:04:12;;;;;;;3.17;1.50;;;;;;;;;;4908889;29;20231;-83
2022/07/23 07:06:40;;;;;;;3.17;1.80;;;;;;;;;;4909499;29;20231;-84
2022/07/23 07:09:06;;;;;;;3.72;1.77;;;;;;;;;;4908886;28;20260;-82
2022/07/23 07:11:32;;;;;;;3.92;2.10;;;;;;;;;;4949648;28;20707;-83
2022/07/23 07:13:59;;;;;;;4.72;1.98;;;;;;;;;;4934113;29;20309;-82
2022/07/23 07:16:27;;;;;;;5.90;2.20;;;;;;;;;;4926704;28;20246;-81
2022/07/23 07:18:53;;;;;;;4.13;2.72;;;;;;;;;;4941342;29;20253;-81
2022/07/23 07:21:21;;;;;;;4.60;2.67;;;;;;;;;;4932362;28;20271;-81
2022/07/23 07:23:46;;;;;;;2.63;2.40;;;;;;;;;;4940710;29;20237;-82
2022/07/23 07:26:12;;;;;;;6.15;2.53;;;;;;;;;;4912255;28;20223;-83
2022/07/23 07:28:45;;;;;;;5.88;2.15;;;;;;;;;;4939854;29;20218;-82
2022/07/23 07:31:10;;;;;;;7.07;1.92;;;;;;;;;;4939184;28;20230;-80
2022/07/23 07:33:36;;;;;;;3.38;2.00;;;;;;;;;;4939359;29;20219;-84
2022/07/23 07:36:01;;;;;;;3.50;1.83;;;;;;;;;;4958388;28;20650;-83
2022/07/23 07:38:27;;;;;;;3.55;1.90;;;;;;;;;;4925039;29;20222;-82
2022/07/23 07:40:52;;;;;;;5.60;1.67;;;;;;;;;;4908915;29;20580;-83
2022/07/23 07:43:18;;;;;;;3.60;1.80;;;;;;;;;;4951824;28;20913;-81
2022/07/23 07:45:43;;;;;;;6.43;1.63;;;;;;;;;;4941813;29;20226;-82
2022/07/23 07:48:11;;;;;;;4.03;1.90;;;;;;;;;;4940689;28;20290;-81
2022/07/23 07:50:37;;;;;;;1.90;1.55;;;;;;;;;;4914045;29;20233;-82
2022/07/23 07:53:02;;;;;;;3.95;2.00;;;;;;;;;;4940460;28;20604;-81
2022/07/23 07:55:28;;;;;;;3.85;2.15;;;;;;;;;;4941668;29;20741;-82
2022/07/23 07:57:54;;;;;;;3.58;1.90;;;;;;;;;;4958001;28;20229;-81
2022/07/23 08:00:19;;;;;;;5.85;1.67;;;;;;;;;;4917805;29;20723;-82
2022/07/23 08:02:48;;;;;;;3.55;1.63;;;;;;;;;;4927210;29;20682;-82
2022/07/23 08:05:14;;;;;;;3.67;1.63;;;;;;;;;;4929040;28;20224;-81
2022/07/23 08:07:42;;;;;;;1.88;1.20;;;;;;;;;;4933744;29;20242;-80
2022/07/23 08:10:08;;;;;;;3.47;1.40;;;;;;;;;;4946544;28;20223;-82
2022/07/23 08:12:50;;;;;;;2.47;1.58;;;;;;;;;;4926772;29;20230;-82
2022/07/23 08:15:17;;;;;;;3.20;1.70;;;;;;;;;;4927751;28;20262;-82
2022/07/23 08:17:43;;;;;;;3.58;1.85;;;;;;;;;;4944981;29;20597;-82
2022/07/23 08:20:09;;;;;;;2.17;1.52;;;;;;;;;;4932367;29;20237;-81
2022/07/23 08:22:57;;;;;;;3.58;1.65;;;;;;;;;;4930023;29;20752;-80
2022/07/23 08:25:25;;;;;;;6.50;2.03;;;;;;;;;;4925977;29;20727;-81
2022/07/23 08:27:51;;;;;;;2.55;1.70;;;;;;;;;;4909448;29;20239;-83
2022/07/23 08:30:17;;;;;;;5.57;1.52;;;;;;;;;;4948077;28;20231;-80
2022/07/23 08:33:00;;;;;;;2.58;1.50;;;;;;;;;;4956401;28;20664;-83
2022/07/23 08:35:31;;;;;;;2.78;1.40;;;;;;;;;;4953742;29;20242;-83
2022/07/23 08:37:56;;;;;;;2.28;1.50;;;;;;;;;;4956931;29;20227;-85
2022/07/23 08:40:22;;;;;;;3.00;1.33;;;;;;;;;;4926175;28;20270;-82
2022/07/23 08:42:49;;;;;;;3.13;1.65;;;;;;;;;;4910676;29;20333;-85
2022/07/23 08:45:16;;;;;;;2.58;1.40;;;;;;;;;;4948772;29;20479;-83
2022/07/23 08:47:44;;;;;;;2.28;1.48;;;;;;;;;;4956145;28;20227;-82
2022/07/23 08:50:10;;;;;;;4.80;1.30;;;;;;;;;;4929648;28;20315;-83
2022/07/23 08:52:38;;;;;;;2.35;1.20;;;;;;;;;;4935169;29;20227;-84
2022/07/23 08:55:04;;;;;;;1.33;0.93;;;;;;;;;;4926444;29;20298;-83
2022/07/23 08:57:32;;;;;;;1.52;1.13;;;;;;;;;;4929569;29;20233;-83
2022/07/23 08:59:57;;;;;;;1.50;1.20;;;;;;;;;;4911829;29;20257;-83
2022/07/23 09:02:23;;;;;;;4.18;1.30;;;;;;;;;;4942820;29;20234;-84
2022/07/23 09:04:49;;;;;;;1.85;1.20;;;;;;;;;;4915560;29;20223;-84
2022/07/23 09:07:14;;;;;;;2.22;1.20;;;;;;;;;;4928918;29;20242;-84
2022/07/23 09:09:40;;;;;;;3.65;1.25;;;;;;;;;;4930838;29;20290;-83
2022/07/23 09:12:09;;;;;;;1.38;1.10;;;;;;;;;;4923637;28;20226;-82
2022/07/23 09:14:42;;;;;;;5.05;1.33;;;;;;;;;;4913898;29;20314;-82
2022/07/23 09:17:09;;;;;;;1.55;0.80;;;;;;;;;;4944730;29;20272;-82
2022/07/23 09:19:35;;;;;;;2.35;1.10;;;;;;;;;;4935953;29;20439;-82
2022/07/23 09:22:36;;;;;;;1.75;1.00;;;;;;;;;;4947585;28;20267;-83
2022/07/23 09:25:29;;;;;;;2.30;1.15;;;;;;;;;;4869543;29;20228;-85
2022/07/23 09:28:02;;;;;;;1.58;0.80;;;;;;;;;;4951277;29;20239;-83
2022/07/23 09:30:34;;;;;;;1.63;0.85;;;;;;;;;;4930693;29;20230;-83
2022/07/23 09:33:07;;;;;;;3.08;1.20;;;;;;;;;;4954356;28;20241;-84
2022/07/23 09:35:55;;;;;;;1.20;1.10;;;;;;;;;;4948507;29;20235;-84
2022/07/23 09:38:25;;;;;;;1.65;0.90;;;;;;;;;;4948939;28;20255;-83
2022/07/23 09:41:09;;;;;;;1.95;0.95;;;;;;;;;;4937384;29;20286;-83
2022/07/23 09:43:35;;;;;;;1.60;0.82;;;;;;;;;;4944312;29;20294;-83
2022/07/23 09:46:28;;;;;;;1.98;1.10;;;;;;;;;;4946493;29;20227;-82
2022/07/23 09:48:56;;;;;;;1.38;0.98;;;;;;;;;;4935323;29;20230;-82
2022/07/23 09:51:36;;;;;;;1.90;0.80;;;;;;;;;;4937764;29;20238;-84
2022/07/23 09:54:01;;;;;;;2.22;0.93;;;;;;;;;;4913544;29;20231;-84
2022/07/23 09:56:27;;;;;;;1.08;0.98;;;;;;;;;;4918730;29;20230;-82
2022/07/23 09:59:02;;;;;;;2.72;1.10;;;;;;;;;;4944663;29;20237;-82
2022/07/23 10:01:28;;;;;;;4.13;1.08;;;;;;;;;;4941868;29;20227;-84
2022/07/23 10:03:54;;;;;;;2.40;0.90;;;;;;;;;;4929541;29;20299;-82
2022/07/23 10:06:39;;;;;;;1.48;0.90;;;;;;;;;;4932070;28;20257;-84
2022/07/23 10:09:34;;;;;;;2.03;0.90;;;;;;;;;;4946217;29;20246;-85
2022/07/23 10:14:56;;;;;;;1.52;1.10;;;;;;;;;;4927024;29;20243;-83
2022/07/23 10:17:25;;;;;;;1.25;0.80;;;;;;;;;;4950978;28;20257;-81
2022/07/23 10:19:50;;;;;;;3.47;1.02;;;;;;;;;;4947803;29;20687;-83
2022/07/23 10:22:22;;;;;;;1.45;0.70;;;;;;;;;;4931118;28;20255;-85
2022/07/23 10:25:04;;;;;;;1.17;0.90;;;;;;;;;;4940722;29;20733;-80
2022/07/23 10:27:53;;;;;;;1.15;1.00;;;;;;;;;;4953766;28;20221;-84
2022/07/23 10:30:25;;;;;;;0.70;0.70;;;;;;;;;;4934480;28;20242;-82
2022/07/23 10:33:12;;;;;;;1.50;1.10;;;;;;;;;;4936627;29;20238;-81
2022/07/23 10:35:43;;;;;;;1.15;0.93;;;;;;;;;;4951567;28;20236;-82
2022/07/23 10:38:24;;;;;;;1.27;1.15;;;;;;;;;;4925345;29;20659;-83
2022/07/23 10:40:57;;;;;;;0.68;0.68;;;;;;;;;;4922046;29;20800;-85
2022/07/23 10:43:23;;;;;;;0.70;0.70;;;;;;;;;;4947258;28;20239;-79
2022/07/23 10:45:48;;;;;;;0.60;0.60;;;;;;;;;;4945876;29;20290;-83
2022/07/23 10:48:26;;;;;;;0.80;0.80;;;;;;;;;;4943575;29;20230;-85
2022/07/23 10:51:08;;;;;;;2.35;0.90;;;;;;;;;;4946014;29;20280;-80
2022/07/23 10:53:53;;;;;;;0.90;0.80;;;;;;;;;;4944560;29;20301;-82
2022/07/23 10:56:58;;;;;;;0.70;0.70;;;;;;;;;;4931039;29;20250;-81
2022/07/23 10:59:24;;;;;;;1.75;0.63;;;;;;;;;;4940184;29;20222;-79
2022/07/23 11:01:51;;;;;;;0.85;0.73;;;;;;;;;;4951523;28;20313;-78
2022/07/23 11:04:19;;;;;;;1.35;0.70;;;;;;;;;;4937684;29;20223;-84
2022/07/23 11:06:48;;;;;;;0.90;0.80;;;;;;;;;;4922486;29;20290;-83
2022/07/23 11:09:28;;;;;;;1.00;0.68;;;;;;;;;;4944154;28;20488;-84
2022/07/23 11:12:12;;;;;;;0.75;0.68;;;;;;;;;;4926441;29;20241;-84
2022/07/23 11:15:00;;;;;;;0.93;0.80;;;;;;;;;;4939113;29;20231;-83
2022/07/23 11:17:26;;;;;;;2.88;0.70;;;;;;;;;;4940716;28;20302;-81
2022/07/23 11:20:07;;;;;;;0.98;0.55;;;;;;;;;;4914624;29;20704;-84
2022/07/23 11:22:35;;;;;;;0.73;0.73;;;;;;;;;;4931762;29;20702;-83
2022/07/23 11:25:04;;;;;;;0.90;0.80;;;;;;;;;;4943224;28;20218;-83
2022/07/23 11:27:42;;;;;;;1.25;0.75;;;;;;;;;;4911769;29;20771;-83
2022/07/23 11:30:08;;;;;;;0.82;0.70;;;;;;;;;;4926009;28;20223;-85
2022/07/23 11:32:37;;;;;;;1.20;0.95;;;;;;;;;;4915040;29;20254;-82
2022/07/23 11:35:18;;;;;;;0.70;0.70;;;;;;;;;;4925717;28;20249;-82
2022/07/23 11:37:43;;;;;;;0.50;0.50;;;;;;;;;;4930189;29;20318;-84
2022/07/23 11:40:12;;;;;;;0.85;0.70;;;;;;;;;;4928186;28;20227;-81
2022/07/23 11:43:01;;;;;;;0.80;0.60;;;;;;;;;;4929831;29;20238;-82
2022/07/23 11:45:33;;;;;;;0.52;0.52;;;;;;;;;;4955552;28;20233;-81
2022/07/23 11:47:58;;;;;;;2.17;0.70;;;;;;;;;;4912350;29;20612;-81
2022/07/23 11:50:27;;;;;;;0.52;0.50;;;;;;;;;;4941604;28;20222;-83
2022/07/23 11:52:54;;;;;;;2.17;0.40;;;;;;;;;;4926907;29;20234;-82
2022/07/23 11:55:19;;;;;;;0.73;0.60;;;;;;;;;;4933622;29;20619;-83
2022/07/23 11:57:45;;;;;;;0.68;0.40;;;;;;;;;;4944255;28;20229;-80
2022/07/23 12:00:14;;;;;;;0.55;0.50;;;;;;;;;;4932756;28;20253;-83
2022/07/23 12:02:44;;;;;;;0.40;0.40;;;;;;;;;;4949202;28;20234;-84
2022/07/23 12:05:22;;;;;;;0.50;0.40;;;;;;;;;;4947460;28;20223;-81
2022/07/23 12:07:52;;;;;;;1.65;0.52;;;;;;;;;;4942941;29;20262;-82
2022/07/23 12:10:27;;;;;;;0.43;0.43;;;;;;;;;;4947735;29;20237;-81
2022/07/23 12:12:58;;;;;;;1.55;0.68;;;;;;;;;;4929387;28;20245;-84
2022/07/23 12:15:40;;;;;;;0.60;0.55;;;;;;;;;;4929347;28;20262;-82
2022/07/23 12:18:07;;;;;;;0.45;0.43;;;;;;;;;;4963908;28;20235;-82
2022/07/23 12:20:35;;;;;;;0.50;0.50;;;;;;;;;;4935597;28;20269;-83
2022/07/23 12:23:05;;;;;;;0.82;0.50;;;;;;;;;;4930911;28;20238;-83
2022/07/23 12:25:35;;;;;;;0.40;0.40;;;;;;;;;;4961966;29;20241;-82
2022/07/23 12:28:05;;;;;;;1.45;0.60;;;;;;;;;;4961412;28;20234;-81
2022/07/23 12:30:38;;;;;;;0.88;0.50;;;;;;;;;;4921794;29;20218;-83
2022/07/23 12:33:04;;;;;;;1.35;0.60;;;;;;;;;;4927270;28;20729;-80
2022/07/23 12:35:34;;;;;;;1.55;0.50;;;;;;;;;;4915261;29;20727;-83
2022/07/23 12:38:04;;;;;;;0.93;0.57;;;;;;;;;;4917885;29;20233;-85
2022/07/23 12:40:36;;;;;;;0.52;0.52;;;;;;;;;;4920220;29;20234;-83
2022/07/23 12:43:04;;;;;;;1.10;0.63;;;;;;;;;;4928893;28;20234;-84
2022/07/23 12:45:46;;;;;;;0.73;0.50;;;;;;;;;;4959275;29;20230;-85
2022/07/23 12:48:20;;;;;;;1.35;0.50;;;;;;;;;;4960099;28;20246;-81
2022/07/23 12:50:52;;;;;;;0.93;0.43;;;;;;;;;;4946882;28;20320;-82
2022/07/23 12:53:21;;;;;;;1.33;0.50;;;;;;;;;;4939270;29;20262;-83
2022/07/23 12:55:47;;;;;;;1.00;0.40;;;;;;;;;;4944457;29;20234;-84
2022/07/23 12:58:16;;;;;;;0.50;0.40;;;;;;;;;;4941335;29;20231;-83
2022/07/23 13:00:51;;;;;;;0.50;0.50;;;;;;;;;;4926801;29;20238;-82
2022/07/23 13:03:26;;;;;;;0.40;0.30;;;;;;;;;;4955513;29;20509;-82
2022/07/23 13:05:52;;;;;;;1.77;0.57;;;;;;;;;;4925196;29;20227;-81
2022/07/23 13:08:26;;;;;;;1.65;0.70;;;;;;;;;;4949621;28;20229;-83
2022/07/23 13:10:56;;;;;;;0.60;0.40;;;;;;;;;;4936227;29;20223;-82
2022/07/23 13:13:23;;;;;;;0.47;0.40;;;;;;;;;;4927637;29;20245;-81
2022/07/23 13:15:51;;;;;;;1.10;0.60;;;;;;;;;;4932831;29;20298;-82
2022/07/23 13:18:17;;;;;;;0.60;0.60;;;;;;;;;;4922698;28;20223;-81
2022/07/23 13:20:44;;;;;;;0.80;0.50;;;;;;;;;;4945066;29;20234;-81
2022/07/23 13:23:10;;;;;;;0.77;0.75;;;;;;;;;;4963666;28;20230;-82
2022/07/23 13:25:38;;;;;;;0.47;0.40;;;;;;;;;;4951953;29;20827;-80
2022/07/23 13:28:04;;;;;;;0.73;0.40;;;;;;;;;;4927229;28;20231;-81
2022/07/23 13:30:29;;;;;;;0.47;0.45;;;;;;;;;;4948542;29;20226;-82
2022/07/23 13:32:55;;;;;;;1.10;0.40;;;;;;;;;;4931216;29;20282;-80
2022/07/23 13:35:21;;;;;;;1.92;0.80;;;;;;;;;;4941109;28;20235;-81
2022/07/23 13:37:46;;;;;;;0.98;0.50;;;;;;;;;;4944864;29;20230;-84
2022/07/23 13:40:12;;;;;;;0.63;0.45;;;;;;;;;;4945253;28;20707;-84
2022/07/23 13:42:38;;;;;;;0.50;0.50;;;;;;;;;;4930297;29;20226;-83
2022/07/23 13:45:04;;;;;;;0.55;0.50;;;;;;;;;;4922596;28;20229;-80
2022/07/23 13:47:32;;;;;;;0.45;0.45;;;;;;;;;;4918712;29;20719;-82
2022/07/23 13:49:58;;;;;;;0.73;0.50;;;;;;;;;;4918015;28;20227;-83
2022/07/23 13:52:24;;;;;;;2.60;0.50;;;;;;;;;;4947271;28;20239;-79
2022/07/23 13:54:52;;;;;;;0.60;0.45;;;;;;;;;;4945330;28;20234;-85
2022/07/23 13:57:20;;;;;;;0.45;0.45;;;;;;;;;;4912553;29;20271;-84
2022/07/23 13:59:50;;;;;;;1.20;0.63;;;;;;;;;;4925496;29;20621;-80
2022/07/23 14:02:18;;;;;;;1.00;0.50;;;;;;;;;;4929298;28;20234;-83
2022/07/23 14:04:45;;;;;;;0.50;0.50;;;;;;;;;;4930365;29;20230;-84
2022/07/23 14:07:11;;;;;;;1.17;0.50;;;;;;;;;;4912556;28;20230;-82
2022/07/23 14:09:36;;;;;;;0.32;0.32;;;;;;;;;;4962200;28;20255;-80
2022/07/23 14:12:05;;;;;;;0.60;0.50;;;;;;;;;;4931376;28;20227;-84
2022/07/23 14:14:31;;;;;;;0.63;0.40;;;;;;;;;;4963018;28;20227;-79
2022/07/23 14:16:59;;;;;;;0.43;0.30;;;;;;;;;;4948523;29;20235;-82
2022/07/23 14:19:25;;;;;;;2.15;0.38;;;;;;;;;;4914893;28;20277;-81
2022/07/23 14:21:53;;;;;;;0.90;0.73;;;;;;;;;;4927750;28;20226;-82
2022/07/23 14:24:19;;;;;;;1.00;0.40;;;;;;;;;;4929192;29;20283;-84
2022/07/23 14:26:44;;;;;;;0.65;0.50;;;;;;;;;;4931921;29;20231;-84
2022/07/23 14:29:14;;;;;;;0.82;0.50;;;;;;;;;;4946990;29;20227;-84
2022/07/23 14:31:40;;;;;;;0.73;0.50;;;;;;;;;;4916236;29;20219;-85
2022/07/23 14:34:11;;;;;;;1.20;0.60;;;;;;;;;;4932025;29;20289;-81
2022/07/23 14:36:39;;;;;;;0.90;0.50;;;;;;;;;;4920014;29;20250;-83
2022/07/23 14:39:08;;;;;;;0.60;0.50;;;;;;;;;;4952271;28;20230;-82
2022/07/23 14:41:34;;;;;;;0.50;0.50;;;;;;;;;;4935537;29;20223;-81
2022/07/23 14:44:05;;;;;;;1.45;0.60;;;;;;;;;;4947816;29;20381;-82
2022/07/23 14:46:30;;;;;;;0.52;0.50;;;;;;;;;;4917223;29;20265;-81
2022/07/23 14:48:56;;;;;;;2.17;0.57;;;;;;;;;;4923793;29;20242;-81
2022/07/23 14:51:21;;;;;;;0.75;0.40;;;;;;;;;;4934921;28;20574;-81
2022/07/23 14:53:49;;;;;;;1.77;0.50;;;;;;;;;;4936115;29;20231;-83
2022/07/23 14:56:18;;;;;;;0.65;0.50;;;;;;;;;;4917222;29;20235;-80